sensor_id;sensor_type;location;lat;lon;timestamp;P1;durP1;ratioP1;P2;durP2;ratioP2
64353;SDS011;50681;53.334;-6.536;2022-12-13T00:01:48;150.30;;;30.60;;
64353;SDS011;50681;53.334;-6.536;2022-12-13T00:04:43;228.03;;;35.20;;
64353;SDS011;50681;53.334;-6.536;2022-12-13T00:07:27;249.20;;;37.27;;
64353;SDS011;50681;53.334;-6.536;2022-12-13T00:09:55;202.57;;;30.60;;
64353;SDS011;50681;53.334;-6.536;2022-12-13T00:12:22;179.83;;;30.00;;
64353;SDS011;50681;53.334;-6.536;2022-12-13T00:15:12;214.10;;;34.90;;
64353;SDS011;50681;53.334;-6.536;2022-12-13T00:17:41;145.15;;;31.02;;
64353;SDS011;50681;53.334;-6.536;2022-12-13T00:20:06;175.13;;;31.70;;
64353;SDS011;50681;53.334;-6.536;2022-12-13T00:22:50;181.57;;;50.60;;
64353;SDS011;50681;53.334;-6.536;2022-12-13T00:26:00;180.27;;;47.50;;
64353;SDS011;50681;53.334;-6.536;2022-12-13T00:28:33;258.43;;;81.53;;
64353;SDS011;50681;53.334;-6.536;2022-12-13T00:31:12;303.53;;;64.10;;
64353;SDS011;50681;53.334;-6.536;2022-12-13T00:33:47;178.70;;;37.30;;
64353;SDS011;50681;53.334;-6.536;2022-12-13T00:37:09;227.60;;;37.97;;
64353;SDS011;50681;53.334;-6.536;2022-12-13T00:39:46;281.07;;;48.20;;
64353;SDS011;50681;53.334;-6.536;2022-12-13T00:45:22;186.13;;;32.78;;
64353;SDS011;50681;53.334;-6.536;2022-12-13T00:48:05;349.47;;;69.27;;
64353;SDS011;50681;53.334;-6.536;2022-12-13T00:50:59;296.90;;;41.97;;
64353;SDS011;50681;53.334;-6.536;2022-12-13T00:53:41;220.13;;;40.70;;
64353;SDS011;50681;53.334;-6.536;2022-12-13T00:56:17;282.23;;;37.27;;
64353;SDS011;50681;53.334;-6.536;2022-12-13T00:59:30;138.95;;;29.02;;
64353;SDS011;50681;53.334;-6.536;2022-12-13T01:01:58;114.00;;;28.10;;
64353;SDS011;50681;53.334;-6.536;2022-12-13T01:04:40;256.93;;;36.00;;
64353;SDS011;50681;53.334;-6.536;2022-12-13T01:07:42;157.83;;;32.03;;
64353;SDS011;50681;53.334;-6.536;2022-12-13T01:10:11;136.07;;;29.70;;
64353;SDS011;50681;53.334;-6.536;2022-12-13T01:13:11;78.73;;;27.70;;
64353;SDS011;50681;53.334;-6.536;2022-12-13T01:15:46;103.90;;;30.60;;
64353;SDS011;50681;53.334;-6.536;2022-12-13T01:18:15;83.17;;;29.17;;
64353;SDS011;50681;53.334;-6.536;2022-12-13T01:21:17;76.87;;;26.07;;
64353;SDS011;50681;53.334;-6.536;2022-12-13T01:23:45;78.77;;;26.13;;
64353;SDS011;50681;53.334;-6.536;2022-12-13T01:26:15;74.27;;;25.03;;
64353;SDS011;50681;53.334;-6.536;2022-12-13T01:29:01;74.30;;;25.47;;
64353;SDS011;50681;53.334;-6.536;2022-12-13T01:31:36;86.20;;;27.40;;
64353;SDS011;50681;53.334;-6.536;2022-12-13T01:34:29;66.63;;;23.93;;
64353;SDS011;50681;53.334;-6.536;2022-12-13T01:37:03;86.20;;;32.87;;
64353;SDS011;50681;53.334;-6.536;2022-12-13T01:39:33;107.20;;;38.27;;
64353;SDS011;50681;53.334;-6.536;2022-12-13T01:42:28;219.43;;;84.13;;
64353;SDS011;50681;53.334;-6.536;2022-12-13T01:45:25;132.57;;;45.80;;
64353;SDS011;50681;53.334;-6.536;2022-12-13T01:47:57;171.00;;;54.67;;
64353;SDS011;50681;53.334;-6.536;2022-12-13T01:50:56;185.37;;;54.87;;
64353;SDS011;50681;53.334;-6.536;2022-12-13T01:53:28;143.90;;;38.47;;
64353;SDS011;50681;53.334;-6.536;2022-12-13T01:56:22;154.50;;;39.27;;
64353;SDS011;50681;53.334;-6.536;2022-12-13T01:59:27;126.77;;;31.60;;
64353;SDS011;50681;53.334;-6.536;2022-12-13T02:02:02;194.33;;;37.73;;
64353;SDS011;50681;53.334;-6.536;2022-12-13T02:07:33;105.83;;;28.10;;
64353;SDS011;50681;53.334;-6.536;2022-12-13T02:10:13;101.70;;;30.17;;
64353;SDS011;50681;53.334;-6.536;2022-12-13T02:12:48;78.90;;;27.70;;
64353;SDS011;50681;53.334;-6.536;2022-12-13T02:15:34;79.80;;;30.13;;
64353;SDS011;50681;53.334;-6.536;2022-12-13T02:30:57;91.90;;;40.27;;
64353;SDS011;50681;53.334;-6.536;2022-12-13T02:37:18;122.43;;;40.60;;
64353;SDS011;50681;53.334;-6.536;2022-12-13T02:46:29;68.33;;;24.83;;
64353;SDS011;50681;53.334;-6.536;2022-12-13T02:49:02;99.80;;;32.87;;
64353;SDS011;50681;53.334;-6.536;2022-12-13T02:51:33;176.60;;;53.00;;
64353;SDS011;50681;53.334;-6.536;2022-12-13T02:54:03;254.00;;;81.63;;
64353;SDS011;50681;53.334;-6.536;2022-12-13T02:56:31;81.37;;;27.97;;
64353;SDS011;50681;53.334;-6.536;2022-12-13T02:58:57;232.07;;;70.30;;
64353;SDS011;50681;53.334;-6.536;2022-12-13T03:10:52;138.10;;;45.27;;
64353;SDS011;50681;53.334;-6.536;2022-12-13T03:18:57;120.93;;;48.37;;
64353;SDS011;50681;53.334;-6.536;2022-12-13T03:21:45;46.97;;;20.40;;
64353;SDS011;50681;53.334;-6.536;2022-12-13T03:24:34;46.57;;;19.90;;
64353;SDS011;50681;53.334;-6.536;2022-12-13T03:27:05;51.87;;;20.47;;
64353;SDS011;50681;53.334;-6.536;2022-12-13T03:29:32;55.13;;;22.67;;
64353;SDS011;50681;53.334;-6.536;2022-12-13T03:32:18;59.90;;;22.13;;
64353;SDS011;50681;53.334;-6.536;2022-12-13T03:34:46;59.37;;;22.10;;
64353;SDS011;50681;53.334;-6.536;2022-12-13T03:37:13;56.75;;;22.60;;
64353;SDS011;50681;53.334;-6.536;2022-12-13T03:40:10;58.40;;;22.43;;
64353;SDS011;50681;53.334;-6.536;2022-12-13T03:42:37;61.27;;;22.67;;
64353;SDS011;50681;53.334;-6.536;2022-12-13T03:45:10;54.93;;;22.03;;
64353;SDS011;50681;53.334;-6.536;2022-12-13T03:47:35;65.93;;;23.30;;
64353;SDS011;50681;53.334;-6.536;2022-12-13T03:50:01;72.93;;;24.97;;
64353;SDS011;50681;53.334;-6.536;2022-12-13T03:52:33;55.10;;;22.90;;
64353;SDS011;50681;53.334;-6.536;2022-12-13T03:55:00;64.03;;;23.13;;
64353;SDS011;50681;53.334;-6.536;2022-12-13T03:57:35;60.13;;;22.97;;
64353;SDS011;50681;53.334;-6.536;2022-12-13T04:00:02;62.27;;;23.40;;
64353;SDS011;50681;53.334;-6.536;2022-12-13T04:02:30;52.80;;;22.87;;
64353;SDS011;50681;53.334;-6.536;2022-12-13T04:05:01;66.33;;;23.77;;
64353;SDS011;50681;53.334;-6.536;2022-12-13T04:07:33;65.07;;;24.60;;
64353;SDS011;50681;53.334;-6.536;2022-12-13T04:09:59;54.83;;;23.07;;
64353;SDS011;50681;53.334;-6.536;2022-12-13T04:12:25;58.60;;;23.53;;
64353;SDS011;50681;53.334;-6.536;2022-12-13T04:15:10;61.37;;;23.40;;
64353;SDS011;50681;53.334;-6.536;2022-12-13T04:20:03;62.97;;;23.43;;
64353;SDS011;50681;53.334;-6.536;2022-12-13T04:22:29;57.33;;;23.13;;
64353;SDS011;50681;53.334;-6.536;2022-12-13T04:25:24;61.27;;;24.57;;
64353;SDS011;50681;53.334;-6.536;2022-12-13T04:27:50;59.50;;;24.05;;
64353;SDS011;50681;53.334;-6.536;2022-12-13T04:30:22;74.10;;;31.07;;
64353;SDS011;50681;53.334;-6.536;2022-12-13T04:32:54;74.10;;;27.83;;
64353;SDS011;50681;53.334;-6.536;2022-12-13T04:35:28;68.10;;;28.23;;
64353;SDS011;50681;53.334;-6.536;2022-12-13T04:37:56;57.85;;;24.08;;
64353;SDS011;50681;53.334;-6.536;2022-12-13T04:40:22;68.23;;;26.30;;
64353;SDS011;50681;53.334;-6.536;2022-12-13T04:42:51;55.80;;;24.20;;
64353;SDS011;50681;53.334;-6.536;2022-12-13T04:45:27;55.97;;;24.07;;
64353;SDS011;50681;53.334;-6.536;2022-12-13T04:47:55;61.08;;;23.35;;
64353;SDS011;50681;53.334;-6.536;2022-12-13T04:50:22;56.00;;;24.20;;
64353;SDS011;50681;53.334;-6.536;2022-12-13T04:52:54;63.73;;;24.20;;
64353;SDS011;50681;53.334;-6.536;2022-12-13T04:55:19;70.23;;;27.50;;
64353;SDS011;50681;53.334;-6.536;2022-12-13T04:57:57;74.50;;;28.73;;
64353;SDS011;50681;53.334;-6.536;2022-12-13T05:00:25;93.20;;;36.60;;
64353;SDS011;50681;53.334;-6.536;2022-12-13T05:02:50;83.83;;;35.63;;
64353;SDS011;50681;53.334;-6.536;2022-12-13T05:05:29;67.23;;;28.03;;
64353;SDS011;50681;53.334;-6.536;2022-12-13T05:08:19;70.70;;;26.83;;
64353;SDS011;50681;53.334;-6.536;2022-12-13T05:10:50;70.93;;;27.10;;
64353;SDS011;50681;53.334;-6.536;2022-12-13T05:13:19;69.33;;;26.40;;
64353;SDS011;50681;53.334;-6.536;2022-12-13T05:15:59;75.43;;;28.20;;
64353;SDS011;50681;53.334;-6.536;2022-12-13T05:21:39;73.73;;;28.60;;
64353;SDS011;50681;53.334;-6.536;2022-12-13T05:24:57;73.90;;;27.90;;
64353;SDS011;50681;53.334;-6.536;2022-12-13T05:27:30;51.90;;;23.73;;
64353;SDS011;50681;53.334;-6.536;2022-12-13T05:29:56;65.07;;;25.67;;
64353;SDS011;50681;53.334;-6.536;2022-12-13T05:34:49;62.57;;;21.93;;
64353;SDS011;50681;53.334;-6.536;2022-12-13T05:39:42;62.17;;;20.33;;
64353;SDS011;50681;53.334;-6.536;2022-12-13T05:42:08;50.97;;;21.47;;
64353;SDS011;50681;53.334;-6.536;2022-12-13T05:44:35;51.97;;;21.03;;
64353;SDS011;50681;53.334;-6.536;2022-12-13T05:47:05;50.70;;;23.10;;
64353;SDS011;50681;53.334;-6.536;2022-12-13T05:49:36;49.00;;;19.83;;
64353;SDS011;50681;53.334;-6.536;2022-12-13T05:52:04;51.27;;;21.30;;
64353;SDS011;50681;53.334;-6.536;2022-12-13T05:56:57;54.47;;;20.63;;
64353;SDS011;50681;53.334;-6.536;2022-12-13T05:59:27;51.40;;;22.00;;
64353;SDS011;50681;53.334;-6.536;2022-12-13T06:01:56;139.60;;;62.83;;
64353;SDS011;50681;53.334;-6.536;2022-12-13T06:04:24;242.07;;;108.10;;
64353;SDS011;50681;53.334;-6.536;2022-12-13T06:09:16;49.07;;;21.40;;
64353;SDS011;50681;53.334;-6.536;2022-12-13T06:11:42;46.42;;;22.15;;
64353;SDS011;50681;53.334;-6.536;2022-12-13T06:14:14;89.13;;;36.70;;
64353;SDS011;50681;53.334;-6.536;2022-12-13T06:17:03;57.20;;;22.17;;
64353;SDS011;50681;53.334;-6.536;2022-12-13T06:19:30;52.63;;;21.90;;
64353;SDS011;50681;53.334;-6.536;2022-12-13T06:21:59;51.50;;;21.77;;
64353;SDS011;50681;53.334;-6.536;2022-12-13T06:24:24;53.23;;;21.50;;
64353;SDS011;50681;53.334;-6.536;2022-12-13T06:26:53;52.97;;;22.55;;
64353;SDS011;50681;53.334;-6.536;2022-12-13T06:29:20;45.30;;;20.80;;
64353;SDS011;50681;53.334;-6.536;2022-12-13T06:31:52;48.10;;;20.33;;
64353;SDS011;50681;53.334;-6.536;2022-12-13T06:34:19;55.60;;;21.10;;
64353;SDS011;50681;53.334;-6.536;2022-12-13T06:36:45;54.43;;;22.43;;
64353;SDS011;50681;53.334;-6.536;2022-12-13T06:39:15;59.43;;;22.40;;
64353;SDS011;50681;53.334;-6.536;2022-12-13T06:41:42;54.90;;;21.93;;
64353;SDS011;50681;53.334;-6.536;2022-12-13T06:44:10;56.63;;;21.30;;
64353;SDS011;50681;53.334;-6.536;2022-12-13T06:46:37;53.38;;;22.10;;
64353;SDS011;50681;53.334;-6.536;2022-12-13T06:49:03;48.30;;;22.80;;
64353;SDS011;50681;53.334;-6.536;2022-12-13T06:51:31;61.83;;;27.23;;
64353;SDS011;50681;53.334;-6.536;2022-12-13T06:54:02;54.80;;;22.23;;
64353;SDS011;50681;53.334;-6.536;2022-12-13T06:56:28;63.67;;;25.55;;
64353;SDS011;50681;53.334;-6.536;2022-12-13T06:58:56;58.33;;;22.73;;
64353;SDS011;50681;53.334;-6.536;2022-12-13T07:01:25;60.70;;;23.97;;
64353;SDS011;50681;53.334;-6.536;2022-12-13T07:03:55;55.90;;;20.83;;
64353;SDS011;50681;53.334;-6.536;2022-12-13T07:06:22;58.93;;;25.27;;
64353;SDS011;50681;53.334;-6.536;2022-12-13T07:08:50;54.43;;;24.10;;
64353;SDS011;50681;53.334;-6.536;2022-12-13T07:11:19;61.17;;;23.07;;
64353;SDS011;50681;53.334;-6.536;2022-12-13T07:13:46;59.00;;;24.13;;
64353;SDS011;50681;53.334;-6.536;2022-12-13T07:16:14;64.93;;;24.63;;
64353;SDS011;50681;53.334;-6.536;2022-12-13T07:18:45;56.53;;;24.90;;
64353;SDS011;50681;53.334;-6.536;2022-12-13T07:21:11;68.50;;;25.43;;
64353;SDS011;50681;53.334;-6.536;2022-12-13T07:23:40;66.53;;;27.37;;
64353;SDS011;50681;53.334;-6.536;2022-12-13T07:26:07;64.83;;;25.83;;
64353;SDS011;50681;53.334;-6.536;2022-12-13T07:28:39;71.67;;;27.00;;
64353;SDS011;50681;53.334;-6.536;2022-12-13T07:31:05;73.78;;;27.55;;
64353;SDS011;50681;53.334;-6.536;2022-12-13T07:33:32;68.63;;;25.33;;
64353;SDS011;50681;53.334;-6.536;2022-12-13T07:36:03;61.17;;;25.05;;
64353;SDS011;50681;53.334;-6.536;2022-12-13T07:38:32;60.60;;;25.00;;
64353;SDS011;50681;53.334;-6.536;2022-12-13T07:41:01;125.07;;;56.57;;
64353;SDS011;50681;53.334;-6.536;2022-12-13T07:43:27;111.23;;;49.37;;
64353;SDS011;50681;53.334;-6.536;2022-12-13T07:48:45;59.03;;;24.87;;
64353;SDS011;50681;53.334;-6.536;2022-12-13T07:51:34;58.30;;;24.80;;
64353;SDS011;50681;53.334;-6.536;2022-12-13T07:54:03;62.40;;;25.50;;
64353;SDS011;50681;53.334;-6.536;2022-12-13T07:56:34;60.63;;;24.90;;
64353;SDS011;50681;53.334;-6.536;2022-12-13T07:59:03;67.83;;;25.90;;
64353;SDS011;50681;53.334;-6.536;2022-12-13T08:01:44;56.17;;;26.20;;
64353;SDS011;50681;53.334;-6.536;2022-12-13T08:04:12;60.73;;;26.17;;
64353;SDS011;50681;53.334;-6.536;2022-12-13T08:06:40;65.20;;;25.67;;
64353;SDS011;50681;53.334;-6.536;2022-12-13T08:09:08;66.17;;;25.30;;
64353;SDS011;50681;53.334;-6.536;2022-12-13T08:11:41;64.30;;;26.97;;
64353;SDS011;50681;53.334;-6.536;2022-12-13T08:14:29;61.37;;;25.50;;
64353;SDS011;50681;53.334;-6.536;2022-12-13T08:16:56;57.97;;;26.40;;
64353;SDS011;50681;53.334;-6.536;2022-12-13T08:19:38;68.77;;;28.20;;
64353;SDS011;50681;53.334;-6.536;2022-12-13T08:22:05;60.33;;;26.35;;
64353;SDS011;50681;53.334;-6.536;2022-12-13T08:24:53;59.37;;;27.83;;
64353;SDS011;50681;53.334;-6.536;2022-12-13T08:27:19;80.33;;;28.17;;
64353;SDS011;50681;53.334;-6.536;2022-12-13T08:32:24;60.53;;;25.47;;
64353;SDS011;50681;53.334;-6.536;2022-12-13T08:36:03;74.97;;;28.87;;
64353;SDS011;50681;53.334;-6.536;2022-12-13T08:38:40;102.53;;;40.80;;
64353;SDS011;50681;53.334;-6.536;2022-12-13T08:41:07;63.90;;;26.67;;
64353;SDS011;50681;53.334;-6.536;2022-12-13T08:44:14;84.37;;;37.00;;
64353;SDS011;50681;53.334;-6.536;2022-12-13T08:47:04;84.37;;;38.67;;
64353;SDS011;50681;53.334;-6.536;2022-12-13T08:49:43;75.23;;;36.07;;
64353;SDS011;50681;53.334;-6.536;2022-12-13T08:52:20;77.07;;;34.60;;
64353;SDS011;50681;53.334;-6.536;2022-12-13T08:54:48;55.37;;;25.63;;
64353;SDS011;50681;53.334;-6.536;2022-12-13T08:57:15;62.92;;;24.52;;
64353;SDS011;50681;53.334;-6.536;2022-12-13T08:59:42;60.57;;;25.00;;
64353;SDS011;50681;53.334;-6.536;2022-12-13T09:02:10;66.00;;;29.30;;
64353;SDS011;50681;53.334;-6.536;2022-12-13T09:04:55;65.03;;;27.63;;
64353;SDS011;50681;53.334;-6.536;2022-12-13T09:11:34;74.83;;;31.20;;
64353;SDS011;50681;53.334;-6.536;2022-12-13T09:18:31;71.03;;;32.07;;
64353;SDS011;50681;53.334;-6.536;2022-12-13T09:22:07;74.20;;;30.20;;
64353;SDS011;50681;53.334;-6.536;2022-12-13T09:27:36;72.80;;;28.57;;
64353;SDS011;50681;53.334;-6.536;2022-12-13T09:31:21;65.80;;;28.57;;
64353;SDS011;50681;53.334;-6.536;2022-12-13T09:38:28;59.63;;;27.95;;
64353;SDS011;50681;53.334;-6.536;2022-12-13T09:49:33;56.10;;;28.07;;
64353;SDS011;50681;53.334;-6.536;2022-12-13T09:53:10;61.63;;;29.50;;
64353;SDS011;50681;53.334;-6.536;2022-12-13T09:56:42;71.77;;;29.13;;
64353;SDS011;50681;53.334;-6.536;2022-12-13T10:00:10;59.50;;;28.27;;
64353;SDS011;50681;53.334;-6.536;2022-12-13T10:03:12;66.20;;;30.47;;
64353;SDS011;50681;53.334;-6.536;2022-12-13T10:06:13;78.00;;;33.27;;
64353;SDS011;50681;53.334;-6.536;2022-12-13T10:09:01;76.43;;;34.47;;
64353;SDS011;50681;53.334;-6.536;2022-12-13T10:12:31;70.30;;;32.90;;
64353;SDS011;50681;53.334;-6.536;2022-12-13T10:15:58;87.63;;;31.92;;
64353;SDS011;50681;53.334;-6.536;2022-12-13T10:30:19;79.13;;;34.97;;
64353;SDS011;50681;53.334;-6.536;2022-12-13T10:33:50;74.70;;;32.93;;
64353;SDS011;50681;53.334;-6.536;2022-12-13T10:37:35;78.53;;;36.33;;
64353;SDS011;50681;53.334;-6.536;2022-12-13T10:40:34;71.67;;;34.10;;
64353;SDS011;50681;53.334;-6.536;2022-12-13T10:43:23;77.73;;;35.70;;
64353;SDS011;50681;53.334;-6.536;2022-12-13T10:46:00;92.00;;;41.30;;
64353;SDS011;50681;53.334;-6.536;2022-12-13T10:55:43;81.77;;;38.50;;
64353;SDS011;50681;53.334;-6.536;2022-12-13T11:25:38;56.93;;;26.57;;
64353;SDS011;50681;53.334;-6.536;2022-12-13T11:39:49;51.23;;;21.80;;
64353;SDS011;50681;53.334;-6.536;2022-12-13T11:49:41;48.33;;;22.57;;
64353;SDS011;50681;53.334;-6.536;2022-12-13T11:53:32;43.33;;;21.53;;
64353;SDS011;50681;53.334;-6.536;2022-12-13T11:56:35;47.20;;;22.07;;
64353;SDS011;50681;53.334;-6.536;2022-12-13T11:59:44;45.17;;;22.07;;
64353;SDS011;50681;53.334;-6.536;2022-12-13T12:05:30;52.27;;;24.47;;
64353;SDS011;50681;53.334;-6.536;2022-12-13T12:19:19;36.07;;;16.90;;
64353;SDS011;50681;53.334;-6.536;2022-12-13T12:30:11;43.03;;;21.60;;
64353;SDS011;50681;53.334;-6.536;2022-12-13T12:33:19;40.33;;;20.73;;
64353;SDS011;50681;53.334;-6.536;2022-12-13T14:35:48;27.17;;;14.37;;
64353;SDS011;50681;53.334;-6.536;2022-12-13T14:49:14;33.60;;;16.63;;
64353;SDS011;50681;53.334;-6.536;2022-12-13T14:52:43;43.47;;;22.77;;
64353;SDS011;50681;53.334;-6.536;2022-12-13T14:59:28;49.30;;;24.23;;
64353;SDS011;50681;53.334;-6.536;2022-12-13T15:21:16;45.08;;;21.88;;
64353;SDS011;50681;53.334;-6.536;2022-12-13T15:23:58;52.80;;;24.10;;
64353;SDS011;50681;53.334;-6.536;2022-12-13T15:33:47;47.57;;;24.73;;
64353;SDS011;50681;53.334;-6.536;2022-12-13T15:40:43;47.07;;;25.73;;
64353;SDS011;50681;53.334;-6.536;2022-12-13T15:43:52;51.83;;;25.73;;
64353;SDS011;50681;53.334;-6.536;2022-12-13T15:47:19;55.67;;;27.73;;
64353;SDS011;50681;53.334;-6.536;2022-12-13T15:50:37;53.30;;;29.23;;
64353;SDS011;50681;53.334;-6.536;2022-12-13T15:53:23;58.83;;;29.33;;
64353;SDS011;50681;53.334;-6.536;2022-12-13T15:55:59;56.73;;;28.07;;
64353;SDS011;50681;53.334;-6.536;2022-12-13T15:58:34;59.60;;;30.67;;
64353;SDS011;50681;53.334;-6.536;2022-12-13T16:01:28;57.27;;;32.10;;
64353;SDS011;50681;53.334;-6.536;2022-12-13T16:04:05;69.20;;;30.92;;
64353;SDS011;50681;53.334;-6.536;2022-12-13T16:06:51;56.23;;;29.50;;
64353;SDS011;50681;53.334;-6.536;2022-12-13T16:09:33;66.78;;;32.63;;
64353;SDS011;50681;53.334;-6.536;2022-12-13T16:12:25;57.07;;;29.87;;
64353;SDS011;50681;53.334;-6.536;2022-12-13T16:15:31;53.27;;;29.97;;
64353;SDS011;50681;53.334;-6.536;2022-12-13T16:18:43;56.50;;;29.70;;
64353;SDS011;50681;53.334;-6.536;2022-12-13T16:21:30;56.83;;;28.67;;
64353;SDS011;50681;53.334;-6.536;2022-12-13T16:23:56;49.97;;;26.05;;
64353;SDS011;50681;53.334;-6.536;2022-12-13T16:26:24;58.25;;;28.55;;
64353;SDS011;50681;53.334;-6.536;2022-12-13T16:28:52;58.70;;;29.73;;
64353;SDS011;50681;53.334;-6.536;2022-12-13T16:31:25;59.93;;;31.07;;
64353;SDS011;50681;53.334;-6.536;2022-12-13T16:34:05;51.87;;;29.63;;
64353;SDS011;50681;53.334;-6.536;2022-12-13T16:36:31;44.33;;;23.70;;
64353;SDS011;50681;53.334;-6.536;2022-12-13T16:39:01;57.60;;;30.47;;
64353;SDS011;50681;53.334;-6.536;2022-12-13T16:41:30;54.10;;;28.73;;
64353;SDS011;50681;53.334;-6.536;2022-12-13T16:44:05;55.53;;;31.40;;
64353;SDS011;50681;53.334;-6.536;2022-12-13T16:46:32;46.30;;;25.23;;
64353;SDS011;50681;53.334;-6.536;2022-12-13T16:49:04;55.47;;;28.92;;
64353;SDS011;50681;53.334;-6.536;2022-12-13T16:51:48;55.80;;;29.97;;
64353;SDS011;50681;53.334;-6.536;2022-12-13T16:54:23;56.47;;;30.23;;
64353;SDS011;50681;53.334;-6.536;2022-12-13T16:56:52;56.07;;;28.50;;
64353;SDS011;50681;53.334;-6.536;2022-12-13T16:59:21;58.87;;;30.80;;
64353;SDS011;50681;53.334;-6.536;2022-12-13T17:01:48;43.77;;;24.87;;
64353;SDS011;50681;53.334;-6.536;2022-12-13T17:04:17;52.33;;;28.33;;
64353;SDS011;50681;53.334;-6.536;2022-12-13T17:06:50;51.77;;;28.47;;
64353;SDS011;50681;53.334;-6.536;2022-12-13T17:09:16;51.00;;;26.40;;
64353;SDS011;50681;53.334;-6.536;2022-12-13T17:11:51;52.10;;;25.90;;
64353;SDS011;50681;53.334;-6.536;2022-12-13T17:14:18;49.43;;;24.73;;
64353;SDS011;50681;53.334;-6.536;2022-12-13T17:16:45;50.80;;;27.83;;
64353;SDS011;50681;53.334;-6.536;2022-12-13T17:19:25;50.40;;;25.07;;
64353;SDS011;50681;53.334;-6.536;2022-12-13T17:21:56;47.47;;;26.93;;
64353;SDS011;50681;53.334;-6.536;2022-12-13T17:24:53;59.50;;;29.33;;
64353;SDS011;50681;53.334;-6.536;2022-12-13T17:27:59;65.37;;;33.23;;
64353;SDS011;50681;53.334;-6.536;2022-12-13T17:30:45;60.87;;;35.50;;
64353;SDS011;50681;53.334;-6.536;2022-12-13T17:33:31;52.33;;;29.63;;
64353;SDS011;50681;53.334;-6.536;2022-12-13T17:36:26;66.73;;;32.83;;
64353;SDS011;50681;53.334;-6.536;2022-12-13T17:39:13;59.22;;;35.67;;
64353;SDS011;50681;53.334;-6.536;2022-12-13T17:42:01;60.75;;;28.23;;
64353;SDS011;50681;53.334;-6.536;2022-12-13T17:44:55;58.43;;;30.63;;
64353;SDS011;50681;53.334;-6.536;2022-12-13T18:01:22;51.10;;;27.13;;
64353;SDS011;50681;53.334;-6.536;2022-12-13T18:08:46;54.27;;;25.40;;
64353;SDS011;50681;53.334;-6.536;2022-12-13T18:12:14;42.53;;;25.57;;
64353;SDS011;50681;53.334;-6.536;2022-12-13T18:15:51;77.90;;;46.53;;
64353;SDS011;50681;53.334;-6.536;2022-12-13T18:19:18;38.25;;;21.08;;
64353;SDS011;50681;53.334;-6.536;2022-12-13T18:21:47;46.73;;;24.77;;
64353;SDS011;50681;53.334;-6.536;2022-12-13T18:24:31;44.27;;;23.17;;
64353;SDS011;50681;53.334;-6.536;2022-12-13T18:27:04;43.17;;;22.90;;
64353;SDS011;50681;53.334;-6.536;2022-12-13T18:29:34;49.63;;;23.67;;
64353;SDS011;50681;53.334;-6.536;2022-12-13T18:32:00;41.50;;;22.03;;
64353;SDS011;50681;53.334;-6.536;2022-12-13T18:34:26;37.65;;;20.30;;
64353;SDS011;50681;53.334;-6.536;2022-12-13T18:36:53;43.10;;;25.07;;
64353;SDS011;50681;53.334;-6.536;2022-12-13T18:40:11;51.97;;;24.67;;
64353;SDS011;50681;53.334;-6.536;2022-12-13T18:42:38;46.80;;;24.30;;
64353;SDS011;50681;53.334;-6.536;2022-12-13T18:46:02;48.60;;;24.37;;
64353;SDS011;50681;53.334;-6.536;2022-12-13T18:56:32;64.63;;;35.80;;
64353;SDS011;50681;53.334;-6.536;2022-12-13T19:00:10;47.50;;;25.67;;
64353;SDS011;50681;53.334;-6.536;2022-12-13T19:04:00;70.53;;;35.33;;
64353;SDS011;50681;53.334;-6.536;2022-12-13T19:17:08;62.87;;;31.70;;
64353;SDS011;50681;53.334;-6.536;2022-12-13T19:34:06;47.83;;;25.77;;
64353;SDS011;50681;53.334;-6.536;2022-12-13T19:44:23;58.13;;;31.30;;
64353;SDS011;50681;53.334;-6.536;2022-12-13T19:51:07;35.47;;;20.53;;
64353;SDS011;50681;53.334;-6.536;2022-12-13T20:05:15;54.30;;;26.77;;
64353;SDS011;50681;53.334;-6.536;2022-12-13T20:08:06;39.50;;;22.47;;
64353;SDS011;50681;53.334;-6.536;2022-12-13T20:10:38;66.73;;;35.97;;
64353;SDS011;50681;53.334;-6.536;2022-12-13T20:13:08;56.47;;;30.43;;
64353;SDS011;50681;53.334;-6.536;2022-12-13T20:15:35;42.70;;;23.85;;
64353;SDS011;50681;53.334;-6.536;2022-12-13T20:18:15;35.87;;;19.53;;
64353;SDS011;50681;53.334;-6.536;2022-12-13T20:20:45;48.30;;;27.13;;
64353;SDS011;50681;53.334;-6.536;2022-12-13T20:23:13;28.77;;;16.47;;
64353;SDS011;50681;53.334;-6.536;2022-12-13T20:26:00;36.20;;;16.27;;
64353;SDS011;50681;53.334;-6.536;2022-12-13T20:29:20;36.30;;;20.98;;
64353;SDS011;50681;53.334;-6.536;2022-12-13T20:31:48;39.83;;;20.90;;
64353;SDS011;50681;53.334;-6.536;2022-12-13T20:34:20;35.97;;;21.23;;
64353;SDS011;50681;53.334;-6.536;2022-12-13T20:36:52;37.37;;;19.70;;
64353;SDS011;50681;53.334;-6.536;2022-12-13T20:39:39;37.37;;;18.87;;
64353;SDS011;50681;53.334;-6.536;2022-12-13T20:42:24;33.43;;;19.43;;
64353;SDS011;50681;53.334;-6.536;2022-12-13T20:45:54;27.53;;;16.40;;
64353;SDS011;50681;53.334;-6.536;2022-12-13T20:48:45;26.87;;;13.43;;
64353;SDS011;50681;53.334;-6.536;2022-12-13T20:51:17;26.17;;;13.77;;
64353;SDS011;50681;53.334;-6.536;2022-12-13T21:04:55;32.17;;;18.50;;
64353;SDS011;50681;53.334;-6.536;2022-12-13T21:07:53;23.17;;;13.07;;
64353;SDS011;50681;53.334;-6.536;2022-12-13T21:10:57;31.93;;;19.13;;
64353;SDS011;50681;53.334;-6.536;2022-12-13T22:07:14;49.47;;;28.17;;
64353;SDS011;50681;53.334;-6.536;2022-12-13T22:10:03;41.93;;;22.60;;
64353;SDS011;50681;53.334;-6.536;2022-12-13T22:17:04;29.03;;;14.03;;
64353;SDS011;50681;53.334;-6.536;2022-12-13T22:20:04;48.10;;;23.63;;
64353;SDS011;50681;53.334;-6.536;2022-12-13T22:23:30;41.20;;;14.63;;
64353;SDS011;50681;53.334;-6.536;2022-12-13T22:30:17;49.73;;;24.77;;
64353;SDS011;50681;53.334;-6.536;2022-12-13T22:33:31;43.37;;;18.93;;
64353;SDS011;50681;53.334;-6.536;2022-12-13T22:37:09;34.88;;;19.17;;
64353;SDS011;50681;53.334;-6.536;2022-12-13T22:40:32;40.20;;;17.53;;
64353;SDS011;50681;53.334;-6.536;2022-12-13T22:44:15;35.10;;;17.03;;
64353;SDS011;50681;53.334;-6.536;2022-12-13T22:51:28;30.70;;;17.10;;
64353;SDS011;50681;53.334;-6.536;2022-12-13T22:58:30;25.37;;;13.73;;
64353;SDS011;50681;53.334;-6.536;2022-12-13T23:02:08;30.93;;;15.50;;
64353;SDS011;50681;53.334;-6.536;2022-12-13T23:20:22;27.70;;;14.03;;
64353;SDS011;50681;53.334;-6.536;2022-12-13T23:23:36;23.17;;;11.93;;
64353;SDS011;50681;53.334;-6.536;2022-12-13T23:27:07;20.20;;;10.15;;
64353;SDS011;50681;53.334;-6.536;2022-12-13T23:30:40;27.07;;;13.53;;
64353;SDS011;50681;53.334;-6.536;2022-12-13T23:34:24;27.77;;;12.55;;
64353;SDS011;50681;53.334;-6.536;2022-12-13T23:38:04;22.07;;;11.17;;
64353;SDS011;50681;53.334;-6.536;2022-12-13T23:41:34;22.20;;;12.53;;
64353;SDS011;50681;53.334;-6.536;2022-12-13T23:47:03;21.00;;;10.60;;
64353;SDS011;50681;53.334;-6.536;2022-12-13T23:49:29;22.63;;;12.00;;
64353;SDS011;50681;53.334;-6.536;2022-12-13T23:52:19;30.07;;;11.83;;
64353;SDS011;50681;53.334;-6.536;2022-12-13T23:54:46;26.90;;;12.63;;
64353;SDS011;50681;53.334;-6.536;2022-12-13T23:57:41;24.93;;;11.10;;
